createdAt,value
2019-02-28T00:01:43.169Z,14.20
2019-02-28T00:04:11.997Z,14.20
2019-02-28T00:06:39.998Z,14.20
2019-02-28T00:09:10.138Z,14.20
2019-02-28T00:11:39.453Z,14.20
2019-02-28T00:14:07.234Z,14.10
2019-02-28T00:16:35.633Z,14.10
2019-02-28T00:19:04.120Z,14.10
2019-02-28T00:21:31.965Z,14.10
2019-02-28T00:24:00.419Z,14.00
2019-02-28T00:26:28.051Z,14.00
2019-02-28T00:28:57.065Z,14.00
2019-02-28T00:31:25.449Z,14.00
2019-02-28T00:33:53.092Z,14.00
2019-02-28T00:36:20.612Z,14.00
2019-02-28T00:38:48.365Z,13.90
2019-02-28T00:41:17.095Z,13.90
2019-02-28T00:43:44.765Z,13.90
2019-02-28T00:46:12.861Z,13.90
2019-02-28T00:48:41.331Z,13.90
2019-02-28T00:51:08.997Z,13.80
2019-02-28T00:53:37.373Z,13.90
2019-02-28T00:56:05.854Z,13.80
2019-02-28T00:58:33.829Z,13.80
2019-02-28T01:01:01.434Z,13.70
2019-02-28T01:03:29.235Z,13.70
2019-02-28T01:05:56.843Z,13.70
2019-02-28T01:08:24.690Z,13.70
2019-02-28T01:10:52.486Z,13.70
2019-02-28T01:13:20.193Z,13.60
2019-02-28T01:15:48.308Z,13.60
2019-02-28T01:18:16.244Z,13.60
2019-02-28T01:20:44.230Z,13.60
2019-02-28T01:23:12.503Z,13.60
2019-02-28T01:25:40.938Z,13.60
2019-02-28T01:28:08.812Z,13.60
2019-02-28T01:30:40.328Z,13.60
2019-02-28T01:33:06.297Z,13.60
2019-02-28T01:35:34.148Z,13.60
2019-02-28T01:38:01.442Z,13.60
2019-02-28T01:40:29.379Z,13.70
2019-02-28T01:42:56.637Z,13.70
2019-02-28T01:45:24.616Z,13.70
2019-02-28T01:47:52.421Z,13.70
2019-02-28T01:50:20.199Z,13.60
2019-02-28T01:52:47.590Z,13.60
2019-02-28T01:55:15.466Z,13.60
2019-02-28T01:57:44.249Z,13.60
2019-02-28T02:00:13.377Z,13.60
2019-02-28T02:02:40.724Z,13.60
2019-02-28T02:05:08.658Z,13.60
2019-02-28T02:07:36.000Z,13.60
2019-02-28T02:10:07.726Z,13.60
2019-02-28T02:12:35.642Z,13.60
2019-02-28T02:15:05.106Z,13.60
2019-02-28T02:17:35.471Z,13.60
2019-02-28T02:20:03.595Z,13.60
2019-02-28T02:22:31.218Z,13.60
2019-02-28T02:24:59.291Z,13.50
2019-02-28T02:27:28.692Z,13.50
2019-02-28T02:29:57.062Z,13.50
2019-02-28T02:32:24.595Z,13.50
2019-02-28T02:34:52.825Z,13.50
2019-02-28T02:37:20.495Z,13.50
2019-02-28T02:39:50.081Z,13.40
2019-02-28T02:42:18.036Z,13.40
2019-02-28T02:44:45.563Z,13.40
2019-02-28T02:47:13.365Z,13.40
2019-02-28T02:49:41.211Z,13.40
2019-02-28T02:52:09.312Z,13.40
2019-02-28T02:54:37.868Z,13.40
2019-02-28T02:57:05.288Z,13.40
2019-02-28T02:59:37.250Z,13.30
2019-02-28T03:02:02.723Z,13.30
2019-02-28T03:04:30.357Z,13.30
2019-02-28T03:06:57.859Z,13.30
2019-02-28T03:09:26.215Z,13.30
2019-02-28T03:11:57.620Z,13.30
2019-02-28T03:14:22.996Z,13.20
2019-02-28T03:16:50.949Z,13.20
2019-02-28T03:19:18.785Z,13.20
2019-02-28T03:21:51.010Z,13.20
2019-02-28T03:24:16.421Z,13.20
2019-02-28T03:26:44.786Z,13.10
2019-02-28T03:29:12.624Z,13.10
2019-02-28T03:31:40.698Z,13.10
2019-02-28T03:34:13.127Z,13.00
2019-02-28T03:36:37.901Z,13.00
2019-02-28T03:39:06.331Z,13.00
2019-02-28T03:41:34.620Z,13.00
2019-02-28T03:44:01.950Z,13.00
2019-02-28T03:46:29.728Z,12.90
2019-02-28T03:48:57.219Z,12.90
2019-02-28T03:51:28.362Z,12.90
2019-02-28T03:53:55.940Z,12.80
2019-02-28T03:56:24.402Z,12.80
2019-02-28T03:58:52.469Z,12.80
2019-02-28T04:01:20.024Z,12.80
2019-02-28T04:03:47.672Z,12.80
2019-02-28T04:06:15.586Z,12.80
2019-02-28T04:08:43.144Z,12.80
2019-02-28T04:11:11.800Z,12.80
2019-02-28T04:13:39.803Z,12.70
2019-02-28T04:16:09.497Z,12.70
2019-02-28T04:18:43.909Z,12.80
2019-02-28T04:21:10.273Z,12.70
2019-02-28T04:23:37.019Z,12.70
2019-02-28T04:26:04.666Z,12.80
2019-02-28T04:28:32.368Z,12.70
2019-02-28T04:30:59.908Z,12.70
2019-02-28T04:33:27.745Z,12.70
2019-02-28T04:35:56.753Z,12.80
2019-02-28T04:38:24.765Z,12.70
2019-02-28T04:40:52.319Z,12.70
2019-02-28T04:43:20.306Z,12.70
2019-02-28T04:45:48.167Z,12.70
2019-02-28T04:48:15.846Z,12.70
2019-02-28T04:50:44.200Z,12.70
2019-02-28T04:53:11.551Z,12.70
2019-02-28T04:55:39.490Z,12.60
2019-02-28T04:58:07.158Z,12.60
2019-02-28T05:00:37.792Z,12.60
2019-02-28T05:03:05.225Z,12.60
2019-02-28T05:05:33.146Z,12.60
2019-02-28T05:08:04.687Z,12.60
2019-02-28T05:10:30.653Z,12.50
2019-02-28T05:12:58.478Z,12.60
2019-02-28T05:15:26.456Z,12.50
2019-02-28T05:17:55.933Z,12.50
2019-02-28T05:20:23.870Z,12.50
2019-02-28T05:22:51.377Z,12.50
2019-02-28T05:25:19.371Z,12.50
2019-02-28T05:27:48.268Z,12.50
2019-02-28T05:30:19.519Z,12.50
2019-02-28T05:32:46.693Z,12.50
2019-02-28T05:35:14.180Z,12.50
2019-02-28T05:37:46.959Z,12.40
2019-02-28T05:40:11.146Z,12.50
2019-02-28T05:42:39.067Z,12.40
2019-02-28T05:45:07.144Z,12.40
2019-02-28T05:47:45.827Z,12.40
2019-02-28T05:50:04.878Z,12.40
2019-02-28T05:52:33.748Z,12.40
2019-02-28T05:55:02.326Z,12.30
2019-02-28T05:57:29.722Z,12.40
2019-02-28T06:00:01.368Z,12.30
2019-02-28T06:02:27.564Z,12.30
2019-02-28T06:04:57.696Z,12.30
2019-02-28T06:07:28.700Z,12.30
2019-02-28T06:09:56.802Z,12.20
2019-02-28T06:12:24.719Z,12.30
2019-02-28T06:14:53.050Z,12.30
2019-02-28T06:17:21.867Z,12.20
2019-02-28T06:19:49.753Z,12.20
2019-02-28T06:22:17.967Z,12.20
2019-02-28T06:24:46.297Z,12.20
2019-02-28T06:27:14.713Z,12.20
2019-02-28T06:29:42.491Z,12.20
2019-02-28T06:32:10.206Z,12.20
2019-02-28T06:34:39.461Z,12.20
2019-02-28T06:37:07.967Z,12.20
2019-02-28T06:39:37.552Z,12.20
2019-02-28T06:42:05.856Z,12.20
2019-02-28T06:44:33.528Z,12.20
2019-02-28T06:47:01.719Z,12.20
2019-02-28T06:49:29.997Z,12.20
2019-02-28T06:51:58.127Z,12.20
2019-02-28T06:54:27.569Z,12.20
2019-02-28T06:56:55.710Z,12.20
2019-02-28T06:59:24.244Z,12.20
2019-02-28T07:01:56.582Z,12.20
2019-02-28T07:04:22.487Z,12.20
2019-02-28T07:06:50.202Z,12.20
2019-02-28T07:09:17.933Z,12.20
2019-02-28T07:11:46.117Z,12.20
2019-02-28T07:14:14.206Z,12.20
2019-02-28T07:16:42.330Z,12.20
2019-02-28T07:19:10.380Z,12.10
2019-02-28T07:21:42.921Z,12.20
2019-02-28T07:24:08.338Z,12.10
2019-02-28T07:26:35.990Z,12.10
2019-02-28T07:29:03.812Z,12.10
2019-02-28T07:31:33.807Z,12.10
2019-02-28T07:34:02.168Z,12.10
2019-02-28T07:36:30.482Z,12.10
2019-02-28T07:39:01.224Z,12.20
2019-02-28T07:41:30.196Z,12.20
2019-02-28T07:43:59.067Z,12.10
2019-02-28T07:46:27.170Z,12.40
2019-02-28T07:48:55.197Z,11.90
2019-02-28T07:51:26.180Z,12.20
2019-02-28T07:53:52.860Z,12.20
2019-02-28T07:56:25.370Z,12.30
2019-02-28T07:58:53.241Z,12.30
2019-02-28T08:01:21.177Z,12.30
2019-02-28T08:03:48.880Z,12.30
2019-02-28T08:06:16.782Z,12.40
2019-02-28T08:08:44.873Z,12.40
2019-02-28T08:11:12.674Z,12.40
2019-02-28T08:13:40.908Z,12.40
2019-02-28T08:16:08.709Z,12.50
2019-02-28T08:18:36.607Z,12.50
2019-02-28T08:21:05.362Z,12.50
2019-02-28T08:23:34.078Z,12.50
2019-02-28T08:26:02.570Z,12.60
2019-02-28T08:28:35.823Z,12.60
2019-02-28T08:31:00.798Z,12.60
2019-02-28T08:33:29.039Z,12.70
2019-02-28T08:35:57.433Z,12.70
2019-02-28T08:38:25.084Z,12.70
2019-02-28T08:40:55.611Z,12.70
2019-02-28T08:43:27.120Z,12.70
2019-02-28T08:45:53.466Z,12.70
2019-02-28T08:48:21.139Z,12.80
2019-02-28T08:50:49.011Z,12.80
2019-02-28T08:53:19.637Z,12.80
2019-02-28T08:55:47.684Z,12.80
2019-02-28T08:58:15.696Z,12.80
2019-02-28T09:00:43.505Z,12.90
2019-02-28T09:03:11.169Z,12.90
2019-02-28T09:05:39.586Z,12.90
2019-02-28T09:08:07.654Z,13.00
2019-02-28T09:10:37.380Z,13.00
2019-02-28T09:13:11.280Z,13.00
2019-02-28T09:15:39.244Z,13.00
2019-02-28T09:18:07.436Z,13.00
2019-02-28T09:20:35.348Z,13.10
2019-02-28T09:23:03.463Z,13.10
2019-02-28T09:25:32.045Z,13.10
2019-02-28T09:28:01.374Z,13.20
2019-02-28T09:30:32.478Z,13.20
2019-02-28T09:33:00.362Z,13.20
2019-02-28T09:35:28.667Z,13.20
2019-02-28T09:38:06.446Z,13.30
2019-02-28T09:40:31.329Z,13.30
2019-02-28T09:42:59.986Z,13.30
2019-02-28T09:45:28.128Z,13.30
2019-02-28T09:48:00.770Z,13.30
2019-02-28T09:50:27.202Z,13.40
2019-02-28T09:52:54.890Z,13.30
2019-02-28T09:55:22.656Z,13.40
2019-02-28T09:57:54.073Z,13.40
2019-02-28T10:00:20.719Z,13.40
2019-02-28T10:02:54.301Z,13.50
2019-02-28T10:05:22.321Z,13.50
2019-02-28T10:07:50.184Z,13.50
2019-02-28T10:10:21.083Z,13.50
2019-02-28T10:12:49.368Z,13.60
2019-02-28T10:15:18.249Z,13.60
2019-02-28T10:17:47.786Z,13.60
2019-02-28T10:20:27.182Z,13.60
2019-02-28T10:22:53.336Z,13.60
2019-02-28T10:25:21.213Z,13.50
2019-02-28T10:27:49.338Z,13.70
2019-02-28T10:30:18.709Z,13.70
2019-02-28T10:32:46.820Z,13.70
2019-02-28T10:35:14.521Z,13.80
2019-02-28T10:37:42.245Z,13.70
2019-02-28T10:40:14.259Z,13.70
2019-02-28T10:42:41.817Z,13.80
2019-02-28T10:45:10.436Z,13.80
2019-02-28T10:47:37.912Z,13.80
2019-02-28T10:50:08.525Z,13.80
2019-02-28T10:52:36.853Z,13.80
2019-02-28T10:55:08.808Z,13.80
2019-02-28T10:57:40.461Z,13.80
2019-02-28T11:00:13.293Z,13.80
2019-02-28T11:02:41.467Z,13.80
2019-02-28T11:05:15.317Z,13.80
2019-02-28T11:07:44.047Z,13.90
2019-02-28T11:10:11.967Z,13.80
2019-02-28T11:12:39.893Z,13.90
2019-02-28T11:15:10.422Z,13.90
2019-02-28T11:17:38.288Z,13.90
2019-02-28T11:20:08.439Z,13.90
2019-02-28T11:22:39.565Z,13.90
2019-02-28T11:25:08.168Z,13.90
2019-02-28T11:27:37.013Z,13.90
2019-02-28T11:30:07.455Z,13.90
2019-02-28T11:32:36.820Z,13.90
2019-02-28T11:35:05.959Z,13.90
2019-02-28T11:37:34.078Z,13.90
2019-02-28T11:40:02.440Z,14.00
2019-02-28T11:42:33.366Z,14.00
2019-02-28T11:45:01.769Z,14.00
2019-02-28T11:47:30.417Z,14.00
2019-02-28T11:50:00.412Z,14.00
2019-02-28T11:52:30.390Z,14.10
2019-02-28T11:54:57.856Z,14.10
2019-02-28T11:57:25.573Z,14.10
2019-02-28T11:59:57.286Z,14.10
2019-02-28T12:02:22.817Z,14.20
2019-02-28T12:04:50.205Z,14.20
2019-02-28T12:07:17.840Z,14.20
2019-02-28T12:09:46.119Z,14.20
2019-02-28T12:12:14.146Z,14.30
2019-02-28T12:14:42.714Z,14.30
2019-02-28T12:17:10.704Z,14.30
2019-02-28T12:19:38.408Z,14.30
2019-02-28T12:22:09.157Z,14.30
2019-02-28T12:24:36.519Z,14.60
2019-02-28T12:27:08.244Z,14.40
2019-02-28T12:29:36.454Z,14.40
2019-02-28T12:32:07.958Z,14.40
2019-02-28T12:34:34.564Z,14.40
2019-02-28T12:37:02.449Z,14.40
2019-02-28T12:39:36.306Z,14.40
2019-02-28T12:42:03.392Z,14.50
2019-02-28T12:44:31.496Z,14.50
2019-02-28T12:46:59.451Z,14.50
2019-02-28T12:49:27.787Z,14.50
2019-02-28T12:51:55.893Z,14.60
2019-02-28T12:54:26.075Z,14.60
2019-02-28T12:56:53.801Z,14.60
2019-02-28T12:59:21.735Z,14.60
2019-02-28T13:01:50.421Z,14.60
2019-02-28T13:04:19.000Z,14.70
2019-02-28T13:06:46.910Z,14.70
2019-02-28T13:09:16.955Z,14.70
2019-02-28T13:11:44.310Z,14.70
2019-02-28T13:14:11.750Z,14.70
2019-02-28T13:16:40.661Z,14.70
2019-02-28T13:19:08.946Z,14.70
2019-02-28T13:21:39.510Z,14.70
2019-02-28T13:24:09.681Z,14.70
2019-02-28T13:26:37.301Z,14.60
2019-02-28T13:29:05.966Z,14.60
2019-02-28T13:31:35.656Z,14.50
2019-02-28T13:34:04.485Z,14.50
2019-02-28T13:36:32.376Z,14.50
2019-02-28T13:39:01.142Z,14.40
2019-02-28T13:41:29.309Z,14.50
2019-02-28T13:43:59.289Z,14.40
2019-02-28T13:46:33.933Z,14.30
2019-02-28T13:48:58.482Z,14.40
2019-02-28T13:51:26.447Z,14.30
2019-02-28T13:53:54.788Z,14.30
2019-02-28T13:56:22.506Z,14.10
2019-02-28T13:58:53.759Z,14.20
2019-02-28T14:01:20.515Z,14.10
2019-02-28T14:03:48.054Z,14.10
2019-02-28T14:06:19.792Z,14.10
2019-02-28T14:08:47.760Z,14.10
2019-02-28T14:11:16.684Z,14.10
2019-02-28T14:13:44.717Z,14.10
2019-02-28T14:16:12.737Z,14.00
2019-02-28T14:18:42.475Z,14.10
2019-02-28T14:21:15.321Z,14.00
2019-02-28T14:23:44.133Z,14.00
2019-02-28T14:26:14.031Z,14.00
2019-02-28T14:28:42.303Z,14.10
2019-02-28T14:31:10.157Z,14.10
2019-02-28T14:33:38.453Z,14.10
2019-02-28T14:36:07.497Z,14.10
2019-02-28T14:38:35.779Z,14.10
2019-02-28T14:41:03.465Z,14.10
2019-02-28T14:43:31.115Z,14.20
2019-02-28T14:45:59.177Z,14.20
2019-02-28T14:48:27.392Z,14.20
2019-02-28T14:50:55.246Z,14.20
2019-02-28T14:53:23.407Z,14.20
2019-02-28T14:55:51.948Z,14.30
2019-02-28T14:58:21.295Z,14.30
2019-02-28T15:00:50.265Z,14.30
2019-02-28T15:03:18.267Z,14.40
2019-02-28T15:05:48.302Z,14.40
2019-02-28T15:08:17.481Z,14.40
2019-02-28T15:10:47.089Z,14.50
2019-02-28T15:13:15.492Z,14.40
2019-02-28T15:15:43.855Z,14.50
2019-02-28T15:18:13.983Z,14.50
2019-02-28T15:20:41.932Z,14.50
2019-02-28T15:23:11.132Z,14.50
2019-02-28T15:25:39.736Z,14.50
2019-02-28T15:28:07.373Z,14.50
2019-02-28T15:30:35.981Z,14.30
2019-02-28T15:33:03.927Z,14.60
2019-02-28T15:35:32.316Z,14.50
2019-02-28T15:38:00.493Z,14.60
2019-02-28T15:40:30.250Z,14.60
2019-02-28T15:42:58.464Z,14.60
2019-02-28T15:45:26.999Z,14.50
2019-02-28T15:47:59.119Z,14.50
2019-02-28T15:50:28.007Z,14.50
2019-02-28T15:52:58.499Z,14.50
2019-02-28T15:55:26.426Z,14.20
2019-02-28T15:57:57.358Z,14.50
2019-02-28T16:00:28.446Z,14.50
2019-02-28T16:02:57.655Z,14.50
2019-02-28T16:05:26.393Z,14.50
2019-02-28T16:07:54.811Z,14.50
2019-02-28T16:10:24.398Z,14.40
2019-02-28T16:12:52.441Z,14.40
2019-02-28T16:15:20.198Z,14.40
2019-02-28T16:17:47.855Z,14.40
2019-02-28T16:20:17.567Z,14.40
2019-02-28T16:22:45.445Z,14.40
2019-02-28T16:25:17.216Z,14.40
2019-02-28T16:27:45.819Z,14.40
2019-02-28T16:30:15.722Z,14.40
2019-02-28T16:32:45.565Z,14.40
2019-02-28T16:35:15.319Z,14.40
2019-02-28T16:37:43.275Z,14.40
2019-02-28T16:40:13.243Z,14.30
2019-02-28T16:42:43.472Z,14.30
2019-02-28T16:45:21.405Z,14.30
2019-02-28T16:47:49.443Z,14.40
2019-02-28T16:50:18.924Z,14.40
2019-02-28T16:52:46.776Z,14.40
2019-02-28T16:55:14.800Z,14.30
2019-02-28T16:57:46.779Z,14.30
2019-02-28T17:00:13.886Z,14.40
2019-02-28T17:02:41.378Z,14.40
2019-02-28T17:05:09.271Z,14.30
2019-02-28T17:07:40.501Z,14.30
2019-02-28T17:10:11.968Z,14.30
2019-02-28T17:13:07.988Z,14.30
2019-02-28T17:16:02.459Z,14.30
2019-02-28T17:18:31.671Z,14.30
2019-02-28T17:21:00.265Z,14.30
2019-02-28T17:23:28.148Z,14.30
2019-02-28T17:25:57.530Z,14.30
2019-02-28T17:28:51.052Z,14.30
2019-02-28T17:31:50.635Z,14.30
2019-02-28T17:34:23.864Z,14.30
2019-02-28T17:36:50.233Z,14.30
2019-02-28T17:39:18.825Z,14.30
2019-02-28T17:41:47.772Z,14.30
2019-02-28T17:44:47.523Z,14.30
2019-02-28T17:48:06.321Z,14.30
2019-02-28T17:51:01.695Z,14.30
2019-02-28T17:54:07.076Z,14.20
2019-02-28T17:57:31.842Z,14.30
2019-02-28T18:00:56.631Z,14.30
2019-02-28T18:04:03.523Z,14.20
2019-02-28T18:07:08.952Z,14.30
2019-02-28T18:10:15.003Z,14.30
2019-02-28T18:13:11.370Z,14.30
2019-02-28T18:16:30.738Z,14.20
2019-02-28T18:19:37.243Z,14.20
2019-02-28T18:22:58.546Z,14.20
2019-02-28T18:25:57.105Z,14.20
2019-02-28T18:29:21.668Z,14.20
2019-02-28T18:31:49.400Z,14.20
2019-02-28T18:34:25.573Z,14.20
2019-02-28T18:36:53.334Z,14.20
2019-02-28T18:39:21.375Z,14.20
2019-02-28T18:41:50.726Z,14.20
2019-02-28T18:44:19.657Z,14.10
2019-02-28T18:46:48.899Z,14.10
2019-02-28T18:49:16.758Z,14.10
2019-02-28T18:51:45.397Z,14.10
2019-02-28T18:54:13.200Z,14.10
2019-02-28T18:56:41.241Z,14.10
2019-02-28T18:59:08.906Z,14.10
2019-02-28T19:01:37.654Z,14.10
2019-02-28T19:04:05.489Z,14.10
2019-02-28T19:06:33.168Z,14.10
2019-02-28T19:09:01.146Z,14.00
2019-02-28T19:11:29.038Z,14.10
2019-02-28T19:13:56.481Z,14.10
2019-02-28T19:16:24.602Z,14.00
2019-02-28T19:18:52.919Z,14.10
2019-02-28T19:21:21.911Z,14.00
2019-02-28T19:23:49.988Z,14.10
2019-02-28T19:26:20.575Z,14.00
2019-02-28T19:28:48.264Z,14.00
2019-02-28T19:31:15.936Z,14.00
2019-02-28T19:33:43.955Z,14.00
2019-02-28T19:36:11.590Z,14.00
2019-02-28T19:38:39.226Z,14.00
2019-02-28T19:41:06.652Z,14.00
2019-02-28T19:43:34.366Z,14.00
2019-02-28T19:46:02.284Z,14.00
2019-02-28T19:48:33.224Z,14.00
2019-02-28T19:51:00.983Z,14.00
2019-02-28T19:53:28.234Z,14.00
2019-02-28T19:55:56.788Z,14.00
2019-02-28T19:58:24.611Z,14.00
2019-02-28T20:00:53.672Z,14.00
2019-02-28T20:03:22.550Z,14.00
2019-02-28T20:05:51.373Z,14.00
2019-02-28T20:08:19.212Z,14.00
2019-02-28T20:10:47.476Z,14.00
2019-02-28T20:13:15.293Z,14.00
2019-02-28T20:15:43.126Z,14.00
2019-02-28T20:18:10.935Z,14.00
2019-02-28T20:20:38.421Z,14.00
2019-02-28T20:23:06.096Z,14.00
2019-02-28T20:25:33.865Z,14.00
2019-02-28T20:28:01.423Z,14.00
2019-02-28T20:30:29.261Z,14.00
2019-02-28T20:32:56.624Z,13.90
2019-02-28T20:35:26.891Z,13.90
2019-02-28T20:37:54.194Z,13.90
2019-02-28T20:40:22.511Z,13.90
2019-02-28T20:42:51.678Z,13.90
2019-02-28T20:45:19.728Z,13.90
2019-02-28T20:47:47.383Z,13.90
2019-02-28T20:50:22.188Z,13.80
2019-02-28T20:52:50.054Z,13.90
2019-02-28T20:55:18.139Z,13.90
2019-02-28T20:57:45.913Z,13.90
2019-02-28T21:00:15.023Z,14.20
2019-02-28T21:02:42.721Z,13.90
2019-02-28T21:05:10.626Z,13.90
2019-02-28T21:07:38.743Z,14.20
2019-02-28T21:10:06.649Z,13.90
2019-02-28T21:12:34.627Z,13.80
2019-02-28T21:15:02.169Z,13.80
2019-02-28T21:17:29.801Z,13.80
2019-02-28T21:19:57.910Z,13.80
2019-02-28T21:22:26.372Z,13.80
2019-02-28T21:24:53.755Z,13.80
2019-02-28T21:27:21.082Z,13.80
2019-02-28T21:29:48.857Z,13.80
2019-02-28T21:32:16.455Z,13.80
2019-02-28T21:34:44.808Z,13.80
2019-02-28T21:37:12.727Z,13.80
2019-02-28T21:39:40.906Z,13.80
2019-02-28T21:42:09.064Z,13.80
2019-02-28T21:44:37.235Z,13.70
2019-02-28T21:47:04.816Z,13.70
2019-02-28T21:49:32.503Z,13.80
2019-02-28T21:52:00.240Z,13.70
2019-02-28T21:54:28.440Z,13.70
2019-02-28T21:56:56.880Z,13.70
2019-02-28T21:59:24.592Z,13.70
2019-02-28T22:01:52.049Z,13.70
2019-02-28T22:04:19.659Z,13.70
2019-02-28T22:06:47.773Z,13.70
2019-02-28T22:09:15.096Z,13.70
2019-02-28T22:11:42.683Z,13.60
2019-02-28T22:14:09.923Z,13.70
2019-02-28T22:16:37.973Z,13.70
2019-02-28T22:19:05.843Z,13.70
2019-02-28T22:21:33.506Z,13.70
2019-02-28T22:24:01.510Z,13.70
2019-02-28T22:26:29.409Z,13.70
2019-02-28T22:28:57.314Z,13.70
2019-02-28T22:31:46.124Z,13.70
2019-02-28T22:34:26.319Z,13.70
2019-02-28T22:36:54.857Z,13.70
2019-02-28T22:39:22.238Z,13.70
2019-02-28T22:41:51.055Z,13.70
2019-02-28T22:44:19.059Z,13.70
2019-02-28T22:46:46.925Z,13.60
2019-02-28T22:49:16.889Z,13.70
2019-02-28T22:51:44.833Z,13.70
2019-02-28T22:54:12.770Z,13.70
2019-02-28T22:56:40.472Z,13.60
2019-02-28T22:59:09.008Z,13.60
2019-02-28T23:01:37.622Z,13.70
2019-02-28T23:04:05.190Z,13.60
2019-02-28T23:06:33.252Z,13.60
2019-02-28T23:09:00.998Z,13.60
2019-02-28T23:11:28.860Z,13.60
2019-02-28T23:13:56.501Z,13.50
2019-02-28T23:16:24.489Z,13.50
2019-02-28T23:18:51.959Z,13.50
2019-02-28T23:21:19.528Z,13.50
2019-02-28T23:23:46.970Z,13.50
2019-02-28T23:26:14.784Z,13.50
2019-02-28T23:29:18.938Z,13.80
2019-02-28T23:32:23.881Z,13.50
2019-02-28T23:34:53.280Z,13.50
2019-02-28T23:37:20.853Z,13.50
2019-02-28T23:39:48.600Z,13.50
2019-02-28T23:42:16.371Z,13.50
2019-02-28T23:44:44.426Z,13.40
2019-02-28T23:47:12.143Z,13.40
2019-02-28T23:49:39.660Z,13.40
2019-02-28T23:52:07.732Z,13.40
2019-02-28T23:54:35.703Z,13.40
2019-02-28T23:57:03.677Z,13.40
2019-02-28T23:59:31.376Z,13.40
